createdAt,value
2022-12-03T00:00:20.987Z,2.01
2022-12-03T00:02:47.573Z,2.05
2022-12-03T00:05:14.400Z,2.13
2022-12-03T00:07:40.965Z,1.98
2022-12-03T00:10:08.082Z,1.90
2022-12-03T00:12:36.927Z,1.84
2022-12-03T00:15:04.380Z,1.98
2022-12-03T00:17:30.836Z,2.01
2022-12-03T00:19:57.423Z,1.92
2022-12-03T00:22:24.264Z,1.90
2022-12-03T00:24:50.957Z,1.91
2022-12-03T00:27:17.697Z,1.90
2022-12-03T00:29:44.328Z,2.04
2022-12-03T00:32:10.865Z,1.85
2022-12-03T00:34:37.393Z,1.88
2022-12-03T00:37:03.854Z,1.98
2022-12-03T00:39:30.375Z,1.82
2022-12-03T00:41:56.936Z,1.90
2022-12-03T00:44:23.602Z,1.89
2022-12-03T00:46:50.204Z,1.88
2022-12-03T00:49:16.808Z,1.87
2022-12-03T00:51:43.369Z,1.83
2022-12-03T00:54:09.839Z,1.88
2022-12-03T00:56:36.414Z,2.13
2022-12-03T00:59:03.085Z,2.00
2022-12-03T01:01:29.697Z,1.80
2022-12-03T01:03:56.270Z,1.85
2022-12-03T01:06:22.778Z,1.89
2022-12-03T01:08:49.213Z,1.90
2022-12-03T01:11:38.743Z,1.98
2022-12-03T01:14:11.717Z,1.98
2022-12-03T01:16:38.695Z,1.91
2022-12-03T01:19:06.264Z,1.84
2022-12-03T01:21:33.257Z,1.96
2022-12-03T01:24:00.109Z,1.79
2022-12-03T01:26:26.752Z,1.84
2022-12-03T01:28:53.298Z,1.78
2022-12-03T01:31:38.934Z,1.69
2022-12-03T01:34:08.183Z,1.71
2022-12-03T01:36:34.721Z,1.68
2022-12-03T01:39:02.829Z,1.82
2022-12-03T01:41:29.871Z,1.68
2022-12-03T01:43:59.220Z,1.64
2022-12-03T01:46:35.958Z,1.76
2022-12-03T01:49:02.459Z,1.64
2022-12-03T01:51:30.276Z,1.71
2022-12-03T01:53:58.549Z,1.64
2022-12-03T01:56:25.049Z,1.59
2022-12-03T01:58:51.624Z,1.63
2022-12-03T02:01:19.362Z,1.59
2022-12-03T02:03:46.194Z,1.66
2022-12-03T02:06:18.563Z,1.64
2022-12-03T02:08:46.631Z,1.70
2022-12-03T02:11:25.496Z,1.55
2022-12-03T02:13:56.469Z,1.55
2022-12-03T02:16:25.478Z,1.56
2022-12-03T02:18:52.083Z,1.62
2022-12-03T02:21:41.958Z,1.60
2022-12-03T02:24:36.266Z,1.62
2022-12-03T02:27:02.871Z,1.58
2022-12-03T02:29:30.570Z,1.75
2022-12-03T02:31:57.307Z,1.85
2022-12-03T02:34:38.913Z,1.57
2022-12-03T02:37:09.853Z,1.61
2022-12-03T02:39:40.432Z,1.66
2022-12-03T02:42:25.961Z,1.61
2022-12-03T02:44:53.389Z,1.66
2022-12-03T02:47:20.985Z,1.75
2022-12-03T02:49:47.693Z,1.72
2022-12-03T02:52:14.487Z,1.80
2022-12-03T02:54:41.353Z,1.65
2022-12-03T02:57:10.065Z,1.74
2022-12-03T02:59:36.777Z,1.95
2022-12-03T03:02:03.385Z,1.81
2022-12-03T03:04:30.370Z,1.95
2022-12-03T03:06:56.892Z,1.78
2022-12-03T03:09:26.001Z,1.83
2022-12-03T03:11:52.445Z,1.95
2022-12-03T03:14:18.940Z,1.94
2022-12-03T03:16:45.571Z,1.87
2022-12-03T03:19:12.277Z,1.96
2022-12-03T03:21:38.780Z,1.92
2022-12-03T03:24:05.498Z,1.89
2022-12-03T03:26:32.014Z,1.97
2022-12-03T03:29:00.322Z,1.95
2022-12-03T03:31:26.913Z,1.89
2022-12-03T03:33:53.447Z,1.85
2022-12-03T03:36:20.562Z,2.06
2022-12-03T03:38:47.555Z,1.95
2022-12-03T03:41:15.423Z,2.09
2022-12-03T03:43:44.067Z,2.06
2022-12-03T03:46:12.030Z,2.07
2022-12-03T03:48:40.267Z,1.94
2022-12-03T03:51:10.443Z,1.99
2022-12-03T03:53:40.369Z,1.95
2022-12-03T03:56:08.169Z,2.03
2022-12-03T03:58:34.698Z,2.15
2022-12-03T04:01:01.550Z,2.00
2022-12-03T04:03:29.243Z,2.00
2022-12-03T04:05:56.070Z,1.99
2022-12-03T04:08:22.593Z,1.91
2022-12-03T04:11:07.582Z,1.93
2022-12-03T04:13:34.037Z,2.03
2022-12-03T04:16:00.552Z,2.11
2022-12-03T04:18:45.283Z,1.99
2022-12-03T04:21:36.638Z,2.03
2022-12-03T04:24:04.604Z,1.95
2022-12-03T04:26:50.055Z,1.98
2022-12-03T04:29:16.475Z,2.03
2022-12-03T04:32:01.439Z,2.04
2022-12-03T04:34:46.482Z,2.11
2022-12-03T04:37:15.440Z,2.19
2022-12-03T04:39:41.970Z,2.02
2022-12-03T04:42:08.520Z,2.07
2022-12-03T04:44:38.291Z,2.15
2022-12-03T04:47:14.490Z,2.16
2022-12-03T04:49:48.407Z,2.04
2022-12-03T04:52:17.001Z,2.15
2022-12-03T04:54:43.844Z,2.13
2022-12-03T04:57:13.324Z,2.11
2022-12-03T04:59:39.866Z,2.17
2022-12-03T05:02:07.099Z,2.16
2022-12-03T05:04:36.665Z,2.16
2022-12-03T05:07:03.709Z,2.10
2022-12-03T05:09:30.169Z,2.25
2022-12-03T05:11:56.648Z,2.25
2022-12-03T05:14:23.151Z,2.22
2022-12-03T05:16:49.649Z,2.22
2022-12-03T05:19:16.136Z,2.22
2022-12-03T05:21:42.603Z,2.30
2022-12-03T05:24:09.036Z,2.28
2022-12-03T05:26:37.752Z,2.25
2022-12-03T05:29:04.207Z,2.37
2022-12-03T05:31:30.722Z,2.42
2022-12-03T05:33:57.233Z,2.40
2022-12-03T05:36:25.292Z,2.40
2022-12-03T05:38:51.748Z,2.32
2022-12-03T05:41:36.877Z,2.41
2022-12-03T05:44:03.386Z,2.45
2022-12-03T05:46:29.924Z,2.30
2022-12-03T05:48:56.414Z,2.31
2022-12-03T05:51:25.119Z,2.29
2022-12-03T05:53:51.564Z,2.20
2022-12-03T05:56:18.016Z,2.23
2022-12-03T05:58:44.432Z,2.28
2022-12-03T06:01:10.864Z,2.24
2022-12-03T06:03:37.458Z,2.25
2022-12-03T06:06:04.325Z,2.24
2022-12-03T06:08:30.749Z,2.33
2022-12-03T06:10:57.230Z,2.33
2022-12-03T06:13:23.682Z,2.25
2022-12-03T06:15:50.241Z,2.42
2022-12-03T06:18:16.759Z,2.44
2022-12-03T06:20:43.225Z,2.50
2022-12-03T06:23:09.757Z,2.41
2022-12-03T06:25:36.299Z,2.35
2022-12-03T06:28:02.922Z,2.37
2022-12-03T06:30:29.507Z,2.29
2022-12-03T06:32:55.968Z,2.40
2022-12-03T06:35:22.436Z,2.37
2022-12-03T06:37:48.948Z,2.33
2022-12-03T06:40:16.700Z,2.28
2022-12-03T06:42:43.304Z,2.29
2022-12-03T06:45:10.115Z,2.23
2022-12-03T06:47:36.924Z,2.27
2022-12-03T06:50:04.482Z,2.29
2022-12-03T06:52:30.974Z,2.29
2022-12-03T06:54:57.515Z,2.23
2022-12-03T06:57:24.044Z,2.35
2022-12-03T06:59:50.682Z,2.25
2022-12-03T07:02:17.433Z,2.34
2022-12-03T07:04:46.645Z,2.27
2022-12-03T07:07:14.070Z,2.25
2022-12-03T07:09:40.541Z,2.44
2022-12-03T07:12:09.230Z,2.39
2022-12-03T07:14:35.727Z,2.31
2022-12-03T07:17:02.210Z,2.44
2022-12-03T07:19:33.009Z,2.44
2022-12-03T07:22:05.280Z,2.40
2022-12-03T07:24:31.818Z,2.50
2022-12-03T07:26:58.300Z,2.50
2022-12-03T07:29:24.898Z,2.31
2022-12-03T07:31:51.506Z,2.38
2022-12-03T07:34:18.052Z,2.47
2022-12-03T07:36:44.580Z,2.48
2022-12-03T07:39:11.218Z,2.47
2022-12-03T07:41:37.743Z,2.59
2022-12-03T07:44:09.144Z,2.55
2022-12-03T07:46:38.990Z,2.47
2022-12-03T07:49:05.539Z,2.65
2022-12-03T07:51:34.445Z,2.61
2022-12-03T07:54:00.921Z,2.59
2022-12-03T07:56:27.398Z,2.42
2022-12-03T07:58:53.894Z,2.40
2022-12-03T08:01:20.567Z,2.58
2022-12-03T08:03:47.153Z,2.38
2022-12-03T08:06:13.703Z,2.41
2022-12-03T08:08:40.193Z,2.40
2022-12-03T08:11:06.872Z,2.36
2022-12-03T08:13:36.620Z,2.43
2022-12-03T08:16:14.770Z,2.28
2022-12-03T08:18:41.326Z,2.30
2022-12-03T08:21:12.841Z,2.36
2022-12-03T08:23:42.148Z,2.31
2022-12-03T08:26:28.291Z,2.38
2022-12-03T08:28:57.016Z,2.47
2022-12-03T08:31:32.454Z,2.44
2022-12-03T08:34:15.946Z,2.58
2022-12-03T08:36:45.592Z,2.55
2022-12-03T08:39:28.058Z,2.49
2022-12-03T08:42:21.238Z,2.57
2022-12-03T08:44:47.848Z,2.50
2022-12-03T08:47:21.502Z,2.51
2022-12-03T08:49:55.320Z,2.32
2022-12-03T08:52:26.675Z,2.45
2022-12-03T08:54:55.567Z,2.40
2022-12-03T08:57:27.822Z,2.33
2022-12-03T09:00:23.730Z,2.52
2022-12-03T09:02:55.351Z,2.46
2022-12-03T09:05:32.333Z,2.57
2022-12-03T09:08:01.256Z,2.53
2022-12-03T09:10:27.773Z,2.40
2022-12-03T09:12:54.256Z,2.35
2022-12-03T09:15:20.717Z,2.33
2022-12-03T09:17:48.846Z,2.43
2022-12-03T09:20:15.605Z,2.39
2022-12-03T09:22:44.573Z,2.42
2022-12-03T09:25:11.259Z,2.54
2022-12-03T09:27:37.758Z,2.44
2022-12-03T09:30:05.908Z,2.51
2022-12-03T09:32:34.804Z,2.46
2022-12-03T09:35:01.252Z,2.55
2022-12-03T09:37:27.700Z,2.60
2022-12-03T09:39:56.551Z,2.56
2022-12-03T09:42:23.173Z,2.45
2022-12-03T09:44:49.631Z,2.57
2022-12-03T09:47:16.129Z,2.43
2022-12-03T09:49:43.097Z,2.46
2022-12-03T09:52:19.034Z,2.55
2022-12-03T09:54:48.116Z,2.59
2022-12-03T09:57:15.968Z,2.50
2022-12-03T09:59:42.827Z,2.64
2022-12-03T10:02:35.833Z,2.65
2022-12-03T10:05:02.403Z,2.66
2022-12-03T10:07:28.934Z,2.57
2022-12-03T10:09:55.944Z,2.61
2022-12-03T10:12:24.810Z,2.53
2022-12-03T10:14:53.042Z,2.53
2022-12-03T10:17:19.744Z,2.67
2022-12-03T10:19:46.489Z,2.75
2022-12-03T10:22:13.221Z,2.70
2022-12-03T10:24:39.963Z,2.69
2022-12-03T10:27:24.529Z,2.62
2022-12-03T10:29:59.590Z,2.81
2022-12-03T10:32:42.759Z,2.72
2022-12-03T10:35:14.372Z,2.67
2022-12-03T10:37:57.571Z,2.59
2022-12-03T10:40:30.685Z,2.54
2022-12-03T10:43:19.561Z,2.58
2022-12-03T10:45:48.391Z,2.65
2022-12-03T10:48:20.954Z,2.70
2022-12-03T10:50:55.921Z,2.76
2022-12-03T10:53:34.364Z,2.65
2022-12-03T10:56:03.864Z,2.56
2022-12-03T10:58:41.659Z,2.52
2022-12-03T11:01:26.775Z,2.65
2022-12-03T11:03:56.528Z,2.60
2022-12-03T11:06:23.501Z,2.77
2022-12-03T11:08:57.110Z,2.75
2022-12-03T11:11:26.992Z,2.75
2022-12-03T11:13:59.894Z,2.71
2022-12-03T11:16:41.649Z,2.69
2022-12-03T11:19:40.478Z,2.71
2022-12-03T11:22:06.918Z,2.62
2022-12-03T11:24:36.089Z,2.56
2022-12-03T11:27:02.552Z,2.66
2022-12-03T11:29:49.737Z,2.61
2022-12-03T11:32:38.155Z,2.61
2022-12-03T11:35:11.949Z,2.71
2022-12-03T11:37:38.646Z,2.85
2022-12-03T11:40:28.034Z,2.70
2022-12-03T11:42:54.630Z,2.77
2022-12-03T11:45:36.717Z,2.62
2022-12-03T11:48:16.440Z,2.74
2022-12-03T11:50:53.443Z,2.56
2022-12-03T11:53:25.643Z,2.54
2022-12-03T11:56:09.038Z,2.47
2022-12-03T11:58:38.334Z,2.52
2022-12-03T12:01:07.069Z,2.62
2022-12-03T12:03:45.833Z,2.61
2022-12-03T12:06:15.070Z,2.62
2022-12-03T12:08:56.074Z,2.62
2022-12-03T12:11:30.731Z,2.63
2022-12-03T12:14:06.610Z,2.67
2022-12-03T12:16:51.648Z,2.51
2022-12-03T12:19:36.644Z,2.50
2022-12-03T12:22:27.569Z,2.58
2022-12-03T12:24:55.038Z,2.49
2022-12-03T12:27:30.310Z,2.52
2022-12-03T12:30:06.594Z,2.64
2022-12-03T12:32:39.917Z,2.37
2022-12-03T12:35:15.015Z,2.42
2022-12-03T12:38:01.135Z,2.50
2022-12-03T12:40:33.500Z,2.52
2022-12-03T12:43:23.779Z,2.58
2022-12-03T12:46:47.321Z,2.72
2022-12-03T12:49:05.327Z,2.63
2022-12-03T12:51:43.429Z,2.53
2022-12-03T12:54:12.454Z,2.58
2022-12-03T12:56:42.792Z,2.61
2022-12-03T12:59:17.857Z,2.59
2022-12-03T13:01:45.971Z,2.73
2022-12-03T13:04:20.980Z,2.57
2022-12-03T13:06:49.979Z,2.54
2022-12-03T13:09:22.811Z,2.59
2022-12-03T13:12:03.949Z,2.62
2022-12-03T13:14:35.111Z,2.57
2022-12-03T13:17:10.809Z,2.68
2022-12-03T13:20:00.560Z,2.53
2022-12-03T13:22:27.913Z,2.44
2022-12-03T13:24:57.279Z,2.59
2022-12-03T13:27:32.692Z,2.42
2022-12-03T13:30:08.467Z,2.46
2022-12-03T13:32:37.789Z,2.44
2022-12-03T13:35:24.257Z,2.32
2022-12-03T13:37:53.582Z,2.42
2022-12-03T13:40:31.429Z,2.35
2022-12-03T13:42:59.437Z,2.34
2022-12-03T13:45:45.230Z,2.30
2022-12-03T13:48:28.994Z,2.30
2022-12-03T13:50:58.273Z,2.24
2022-12-03T13:53:33.851Z,2.39
2022-12-03T13:56:30.551Z,2.30
2022-12-03T13:59:00.807Z,2.30
2022-12-03T14:01:28.364Z,2.41
2022-12-03T14:03:54.934Z,2.41
2022-12-03T14:06:21.522Z,2.32
2022-12-03T14:08:48.060Z,2.34
2022-12-03T14:11:34.484Z,2.40
2022-12-03T14:14:01.032Z,2.39
2022-12-03T14:16:27.567Z,2.39
2022-12-03T14:18:54.115Z,2.47
2022-12-03T14:21:20.675Z,2.56
2022-12-03T14:23:47.196Z,2.57
2022-12-03T14:26:13.771Z,2.59
2022-12-03T14:28:40.299Z,2.48
2022-12-03T14:31:06.872Z,2.34
2022-12-03T14:33:33.483Z,2.59
2022-12-03T14:36:00.412Z,2.41
2022-12-03T14:38:27.086Z,2.35
2022-12-03T14:40:53.679Z,2.33
2022-12-03T14:43:20.331Z,2.25
2022-12-03T14:45:46.939Z,2.36
2022-12-03T14:48:13.758Z,2.26
2022-12-03T14:50:40.264Z,2.31
2022-12-03T14:53:06.755Z,2.23
2022-12-03T14:55:33.282Z,2.24
2022-12-03T14:57:59.760Z,2.41
2022-12-03T15:00:28.716Z,2.43
2022-12-03T15:02:55.240Z,2.50
2022-12-03T15:05:27.908Z,2.42
2022-12-03T15:07:55.304Z,2.40
2022-12-03T15:10:21.941Z,2.49
2022-12-03T15:12:48.477Z,2.46
2022-12-03T15:15:15.121Z,2.39
2022-12-03T15:17:41.895Z,2.33
2022-12-03T15:20:08.912Z,2.30
2022-12-03T15:22:35.431Z,2.42
2022-12-03T15:25:03.389Z,2.45
2022-12-03T15:27:30.027Z,2.33
2022-12-03T15:29:56.953Z,2.34
2022-12-03T15:32:23.931Z,2.44
2022-12-03T15:34:52.765Z,2.42
2022-12-03T15:37:19.389Z,2.38
2022-12-03T15:39:48.780Z,2.33
2022-12-03T15:42:15.494Z,2.27
2022-12-03T15:44:42.040Z,2.41
2022-12-03T15:47:08.513Z,2.32
2022-12-03T15:49:35.083Z,2.36
2022-12-03T15:52:01.647Z,2.39
2022-12-03T15:54:28.114Z,2.35
2022-12-03T15:56:57.441Z,2.33
2022-12-03T15:59:24.615Z,2.32
2022-12-03T16:01:51.168Z,2.29
2022-12-03T16:04:20.134Z,2.30
2022-12-03T16:06:46.680Z,2.26
2022-12-03T16:09:13.240Z,2.41
2022-12-03T16:11:39.755Z,2.45
2022-12-03T16:14:08.028Z,2.36
2022-12-03T16:16:34.695Z,2.43
2022-12-03T16:19:01.323Z,2.45
2022-12-03T16:21:27.818Z,2.39
2022-12-03T16:23:55.054Z,2.38
2022-12-03T16:26:22.381Z,2.33
2022-12-03T16:28:48.851Z,2.24
2022-12-03T16:31:15.353Z,2.39
2022-12-03T16:33:41.954Z,2.44
2022-12-03T16:36:08.797Z,2.43
2022-12-03T16:38:35.322Z,2.30
2022-12-03T16:41:02.218Z,2.39
2022-12-03T16:43:28.894Z,2.35
2022-12-03T16:46:13.803Z,2.47
2022-12-03T16:48:43.210Z,2.36
2022-12-03T16:51:10.829Z,2.34
2022-12-03T16:53:37.308Z,2.35
2022-12-03T16:56:06.316Z,2.41
2022-12-03T16:58:32.891Z,2.37
2022-12-03T17:00:59.602Z,2.37
2022-12-03T17:03:34.078Z,2.36
2022-12-03T17:06:01.672Z,2.40
2022-12-03T17:08:30.986Z,2.44
2022-12-03T17:10:57.803Z,2.40
2022-12-03T17:13:24.709Z,2.45
2022-12-03T17:15:51.437Z,2.51
2022-12-03T17:18:18.298Z,2.60
2022-12-03T17:20:45.098Z,2.56
2022-12-03T17:23:12.466Z,2.52
2022-12-03T17:25:41.261Z,2.50
2022-12-03T17:28:10.395Z,2.51
2022-12-03T17:30:39.372Z,2.49
2022-12-03T17:33:05.872Z,2.54
2022-12-03T17:35:33.096Z,2.47
2022-12-03T17:37:59.961Z,2.46
2022-12-03T17:40:27.148Z,2.53
2022-12-03T17:42:54.026Z,2.57
2022-12-03T17:45:20.914Z,2.58
2022-12-03T17:47:47.479Z,2.46
2022-12-03T17:50:14.190Z,2.46
2022-12-03T17:52:40.969Z,2.39
2022-12-03T17:55:12.728Z,2.52
2022-12-03T17:57:43.004Z,2.52
2022-12-03T18:00:11.239Z,2.43
2022-12-03T18:02:38.699Z,2.51
2022-12-03T18:05:05.851Z,2.46
2022-12-03T18:07:32.480Z,2.50
2022-12-03T18:10:01.489Z,2.62
2022-12-03T18:12:27.975Z,2.51
2022-12-03T18:14:54.502Z,2.47
2022-12-03T18:17:21.000Z,2.44
2022-12-03T18:19:49.792Z,2.54
2022-12-03T18:22:17.047Z,2.59
2022-12-03T18:24:50.201Z,2.70
2022-12-03T18:27:18.322Z,2.72
2022-12-03T18:29:44.984Z,2.67
2022-12-03T18:32:27.291Z,2.73
2022-12-03T18:34:54.930Z,2.72
2022-12-03T18:37:22.027Z,2.83
2022-12-03T18:39:49.079Z,2.82
2022-12-03T18:42:24.643Z,2.83
2022-12-03T18:44:54.267Z,2.75
2022-12-03T18:47:26.991Z,2.76
2022-12-03T18:49:54.499Z,2.58
2022-12-03T18:52:23.282Z,2.75
2022-12-03T18:54:50.096Z,2.70
2022-12-03T18:57:16.916Z,2.70
2022-12-03T18:59:43.459Z,2.63
2022-12-03T19:02:32.456Z,2.72
2022-12-03T19:05:05.853Z,2.72
2022-12-03T19:07:32.395Z,2.66
2022-12-03T19:09:59.030Z,2.69
2022-12-03T19:12:27.889Z,2.64
2022-12-03T19:14:54.384Z,2.73
2022-12-03T19:17:27.176Z,2.69
2022-12-03T19:19:54.387Z,2.80
2022-12-03T19:22:21.289Z,2.84
2022-12-03T19:24:47.793Z,2.64
2022-12-03T19:27:14.728Z,2.70
2022-12-03T19:29:41.623Z,2.71
2022-12-03T19:32:09.004Z,2.76
2022-12-03T19:34:35.785Z,2.73
2022-12-03T19:37:02.272Z,2.78
2022-12-03T19:39:28.809Z,2.77
2022-12-03T19:41:57.838Z,2.61
2022-12-03T19:44:24.400Z,2.74
2022-12-03T19:46:53.215Z,2.81
2022-12-03T19:49:22.358Z,2.79
2022-12-03T19:51:49.104Z,2.80
2022-12-03T19:54:16.493Z,2.76
2022-12-03T19:56:46.306Z,2.75
2022-12-03T19:59:14.151Z,2.74
2022-12-03T20:01:42.921Z,2.68
2022-12-03T20:04:13.756Z,2.71
2022-12-03T20:06:40.450Z,2.64
2022-12-03T20:09:12.772Z,2.66
2022-12-03T20:11:41.237Z,2.78
2022-12-03T20:14:13.811Z,2.56
2022-12-03T20:16:40.782Z,2.58
2022-12-03T20:19:08.509Z,2.61
2022-12-03T20:21:40.180Z,2.60
2022-12-03T20:24:08.589Z,2.62
2022-12-03T20:26:35.325Z,2.65
2022-12-03T20:29:01.986Z,2.76
2022-12-03T20:31:31.330Z,2.79
2022-12-03T20:34:03.528Z,2.77
2022-12-03T20:36:35.217Z,2.79
2022-12-03T20:39:04.848Z,2.79
2022-12-03T20:41:35.168Z,2.81
2022-12-03T20:44:03.248Z,2.80
2022-12-03T20:46:31.613Z,2.97
2022-12-03T20:48:59.256Z,2.93
2022-12-03T20:51:29.720Z,2.93
2022-12-03T20:54:01.164Z,2.96
2022-12-03T20:56:33.965Z,2.93
2022-12-03T20:59:05.128Z,3.00
2022-12-03T21:01:32.143Z,2.92
2022-12-03T21:03:59.207Z,2.94
2022-12-03T21:06:30.825Z,2.96
2022-12-03T21:08:59.044Z,2.90
2022-12-03T21:11:30.771Z,2.89
2022-12-03T21:14:00.434Z,2.85
2022-12-03T21:16:52.515Z,2.82
2022-12-03T21:19:18.293Z,2.90
2022-12-03T21:21:45.244Z,3.05
2022-12-03T21:24:13.542Z,2.97
2022-12-03T21:26:40.802Z,2.92
2022-12-03T21:29:07.613Z,2.88
2022-12-03T21:31:35.623Z,2.99
2022-12-03T21:34:03.090Z,3.09
2022-12-03T21:36:32.480Z,3.16
2022-12-03T21:38:59.048Z,3.06
2022-12-03T21:41:25.674Z,3.06
2022-12-03T21:43:52.385Z,3.07
2022-12-03T21:47:10.952Z,3.04
2022-12-03T21:49:07.724Z,3.14
2022-12-03T21:51:34.222Z,3.19
2022-12-03T21:54:03.280Z,3.29
2022-12-03T21:56:33.053Z,3.19
2022-12-03T21:58:59.572Z,3.20
2022-12-03T22:01:30.929Z,3.17
2022-12-03T22:03:57.629Z,3.16
2022-12-03T22:06:24.154Z,3.20
2022-12-03T22:08:53.022Z,3.19
2022-12-03T22:11:22.744Z,3.15
2022-12-03T22:13:51.799Z,3.26
2022-12-03T22:16:20.639Z,3.39
2022-12-03T22:18:50.010Z,3.25
2022-12-03T22:21:21.859Z,3.27
2022-12-03T22:23:48.386Z,3.31
2022-12-03T22:26:17.379Z,3.38
2022-12-03T22:28:49.528Z,3.39
2022-12-03T22:31:17.606Z,3.32
2022-12-03T22:33:48.184Z,3.32
2022-12-03T22:36:20.972Z,3.35
2022-12-03T22:38:49.161Z,3.24
2022-12-03T22:41:16.364Z,3.20
2022-12-03T22:43:43.086Z,3.24
2022-12-03T22:46:12.396Z,3.26
2022-12-03T22:48:40.357Z,3.27
2022-12-03T22:51:13.728Z,3.33
2022-12-03T22:53:43.687Z,3.31
2022-12-03T22:56:12.495Z,3.23
2022-12-03T22:58:42.725Z,3.31
2022-12-03T23:01:09.376Z,3.22
2022-12-03T23:03:37.014Z,3.17
2022-12-03T23:06:10.366Z,3.18
2022-12-03T23:08:36.814Z,3.16
2022-12-03T23:11:03.302Z,3.14
2022-12-03T23:13:29.869Z,3.19
2022-12-03T23:15:56.442Z,3.13
2022-12-03T23:18:23.239Z,3.26
2022-12-03T23:20:52.422Z,3.14
2022-12-03T23:23:20.901Z,3.18
2022-12-03T23:26:08.263Z,3.24
2022-12-03T23:28:36.584Z,3.27
2022-12-03T23:31:04.465Z,3.21
2022-12-03T23:33:36.621Z,3.12
2022-12-03T23:36:06.165Z,3.12
2022-12-03T23:38:32.775Z,3.17
2022-12-03T23:41:04.495Z,3.26
2022-12-03T23:43:31.180Z,3.17
2022-12-03T23:46:11.795Z,3.31
2022-12-03T23:48:39.248Z,3.45
2022-12-03T23:51:11.357Z,3.33
2022-12-03T23:53:39.592Z,3.31
2022-12-03T23:56:07.356Z,3.32
2022-12-03T23:58:34.146Z,3.30
